sensor_id;sensor_type;location;lat;lon;timestamp;pressure;altitude;pressure_sealevel;temperature;humidity
64886;BME280;51514;52.206;5.114;2023-03-18T00:00:47;100807.88;;;12.98;76.47
64886;BME280;51514;52.206;5.114;2023-03-18T00:03:12;100815.34;;;12.96;76.87
64886;BME280;51514;52.206;5.114;2023-03-18T00:05:38;100806.38;;;12.96;76.44
64886;BME280;51514;52.206;5.114;2023-03-18T00:08:05;100809.56;;;12.99;76.38
64886;BME280;51514;52.206;5.114;2023-03-18T00:10:31;100806.00;;;12.99;76.34
64886;BME280;51514;52.206;5.114;2023-03-18T00:12:57;100804.53;;;12.96;76.61
64886;BME280;51514;52.206;5.114;2023-03-18T00:15:23;100809.78;;;12.98;76.88
64886;BME280;51514;52.206;5.114;2023-03-18T00:17:49;100810.63;;;12.90;76.98
64886;BME280;51514;52.206;5.114;2023-03-18T00:20:16;100820.59;;;12.90;76.90
64886;BME280;51514;52.206;5.114;2023-03-18T00:22:43;100820.25;;;12.93;76.63
64886;BME280;51514;52.206;5.114;2023-03-18T00:25:12;100821.09;;;12.93;76.62
64886;BME280;51514;52.206;5.114;2023-03-18T00:27:37;100821.94;;;12.94;76.82
64886;BME280;51514;52.206;5.114;2023-03-18T00:30:05;100833.97;;;12.91;77.00
64886;BME280;51514;52.206;5.114;2023-03-18T00:32:31;100830.75;;;12.88;77.15
64886;BME280;51514;52.206;5.114;2023-03-18T00:34:56;100831.28;;;12.83;77.10
64886;BME280;51514;52.206;5.114;2023-03-18T00:37:23;100835.34;;;12.79;77.32
64886;BME280;51514;52.206;5.114;2023-03-18T00:40:06;100832.16;;;12.75;77.78
64886;BME280;51514;52.206;5.114;2023-03-18T00:42:33;100825.72;;;12.76;78.01
64886;BME280;51514;52.206;5.114;2023-03-18T00:45:07;100828.09;;;12.71;77.54
64886;BME280;51514;52.206;5.114;2023-03-18T00:47:34;100833.53;;;12.63;77.96
64886;BME280;51514;52.206;5.114;2023-03-18T00:49:59;100833.53;;;12.55;78.08
64886;BME280;51514;52.206;5.114;2023-03-18T00:52:25;100830.38;;;12.43;78.45
64886;BME280;51514;52.206;5.114;2023-03-18T00:54:51;100836.44;;;12.37;78.74
64886;BME280;51514;52.206;5.114;2023-03-18T00:57:16;100830.53;;;12.34;78.75
64886;BME280;51514;52.206;5.114;2023-03-18T00:59:42;100830.88;;;12.31;78.87
64886;BME280;51514;52.206;5.114;2023-03-18T01:02:08;100828.00;;;12.32;79.21
64886;BME280;51514;52.206;5.114;2023-03-18T01:04:33;100830.53;;;12.34;78.75
64886;BME280;51514;52.206;5.114;2023-03-18T01:06:59;100829.34;;;12.36;78.99
64886;BME280;51514;52.206;5.114;2023-03-18T01:09:25;100830.19;;;12.37;79.02
64886;BME280;51514;52.206;5.114;2023-03-18T01:11:51;100827.50;;;12.37;79.16
64886;BME280;51514;52.206;5.114;2023-03-18T01:14:17;100825.63;;;12.37;79.31
64886;BME280;51514;52.206;5.114;2023-03-18T01:16:43;100825.13;;;12.34;79.18
64886;BME280;51514;52.206;5.114;2023-03-18T01:19:08;100819.38;;;12.37;79.36
64886;BME280;51514;52.206;5.114;2023-03-18T01:21:34;100814.81;;;12.37;79.21
64886;BME280;51514;52.206;5.114;2023-03-18T01:24:00;100829.84;;;12.40;79.16
64886;BME280;51514;52.206;5.114;2023-03-18T01:26:25;100828.00;;;12.40;78.92
64886;BME280;51514;52.206;5.114;2023-03-18T01:28:51;100826.16;;;12.41;79.22
64886;BME280;51514;52.206;5.114;2023-03-18T01:31:16;100829.84;;;12.40;78.95
64886;BME280;51514;52.206;5.114;2023-03-18T01:33:42;100837.13;;;12.39;79.43
64886;BME280;51514;52.206;5.114;2023-03-18T01:36:07;100827.31;;;12.38;79.33
64886;BME280;51514;52.206;5.114;2023-03-18T01:38:33;100827.31;;;12.38;79.41
64886;BME280;51514;52.206;5.114;2023-03-18T01:40:59;100827.50;;;12.37;79.49
64886;BME280;51514;52.206;5.114;2023-03-18T01:43:33;100830.53;;;12.34;79.94
64886;BME280;51514;52.206;5.114;2023-03-18T01:46:00;100818.06;;;12.33;79.87
64886;BME280;51514;52.206;5.114;2023-03-18T01:48:28;100823.78;;;12.30;80.24
64886;BME280;51514;52.206;5.114;2023-03-18T01:50:59;100827.50;;;12.29;80.41
64886;BME280;51514;52.206;5.114;2023-03-18T01:53:42;100829.53;;;12.27;80.30
64886;BME280;51514;52.206;5.114;2023-03-18T01:56:09;100837.31;;;12.22;79.94
64886;BME280;51514;52.206;5.114;2023-03-18T01:58:38;100838.66;;;12.18;80.21
64886;BME280;51514;52.206;5.114;2023-03-18T02:01:16;100838.50;;;12.11;80.87
64886;BME280;51514;52.206;5.114;2023-03-18T02:03:44;100838.66;;;12.10;80.42
64886;BME280;51514;52.206;5.114;2023-03-18T02:06:10;100836.28;;;12.06;80.87
64886;BME280;51514;52.206;5.114;2023-03-18T02:08:37;100830.53;;;12.01;81.38
64886;BME280;51514;52.206;5.114;2023-03-18T02:11:05;100833.75;;;11.97;82.06
64886;BME280;51514;52.206;5.114;2023-03-18T02:13:31;100827.00;;;11.93;82.45
64886;BME280;51514;52.206;5.114;2023-03-18T02:16:04;100831.56;;;11.92;82.96
64886;BME280;51514;52.206;5.114;2023-03-18T02:18:40;100836.78;;;11.94;83.51
64886;BME280;51514;52.206;5.114;2023-03-18T02:26:36;100843.56;;;11.98;83.89
64886;BME280;51514;52.206;5.114;2023-03-18T02:29:05;100853.53;;;11.97;83.86
64886;BME280;51514;52.206;5.114;2023-03-18T02:31:33;100852.84;;;11.95;84.11
64886;BME280;51514;52.206;5.114;2023-03-18T02:34:00;100851.50;;;11.99;83.96
64886;BME280;51514;52.206;5.114;2023-03-18T02:36:28;100849.44;;;12.01;84.13
64886;BME280;51514;52.206;5.114;2023-03-18T02:38:55;100847.44;;;12.03;84.24
64886;BME280;51514;52.206;5.114;2023-03-18T02:41:33;100849.28;;;12.03;84.54
64886;BME280;51514;52.206;5.114;2023-03-18T02:43:59;100848.97;;;12.06;84.42
64886;BME280;51514;52.206;5.114;2023-03-18T02:48:55;100846.09;;;12.07;84.47
64886;BME280;51514;52.206;5.114;2023-03-18T02:51:22;100855.03;;;12.08;84.54
64886;BME280;51514;52.206;5.114;2023-03-18T02:53:48;100855.22;;;12.06;84.31
64886;BME280;51514;52.206;5.114;2023-03-18T02:56:14;100857.06;;;12.06;84.30
64886;BME280;51514;52.206;5.114;2023-03-18T02:58:40;100849.13;;;12.04;84.77
64886;BME280;51514;52.206;5.114;2023-03-18T03:01:06;100847.44;;;12.03;84.76
64886;BME280;51514;52.206;5.114;2023-03-18T03:03:33;100845.75;;;12.02;84.64
64886;BME280;51514;52.206;5.114;2023-03-18T03:05:59;100844.72;;;12.03;84.87
64886;BME280;51514;52.206;5.114;2023-03-18T03:08:25;100842.88;;;12.04;84.60
64886;BME280;51514;52.206;5.114;2023-03-18T03:10:51;100849.81;;;12.06;84.78
64886;BME280;51514;52.206;5.114;2023-03-18T03:13:17;100857.91;;;12.06;84.58
64886;BME280;51514;52.206;5.114;2023-03-18T03:15:43;100858.94;;;12.05;84.48
64886;BME280;51514;52.206;5.114;2023-03-18T03:18:08;100860.78;;;12.05;85.18
64886;BME280;51514;52.206;5.114;2023-03-18T03:20:35;100857.22;;;12.04;84.91
64886;BME280;51514;52.206;5.114;2023-03-18T03:23:05;100860.94;;;12.03;84.63
64886;BME280;51514;52.206;5.114;2023-03-18T03:25:31;100863.81;;;12.02;84.68
64886;BME280;51514;52.206;5.114;2023-03-18T03:27:57;100862.97;;;12.01;84.84
64886;BME280;51514;52.206;5.114;2023-03-18T03:30:23;100867.53;;;12.01;84.43
64886;BME280;51514;52.206;5.114;2023-03-18T03:32:48;100868.19;;;11.95;84.89
64886;BME280;51514;52.206;5.114;2023-03-18T03:35:15;100863.47;;;11.89;85.31
64886;BME280;51514;52.206;5.114;2023-03-18T03:37:41;100869.22;;;11.86;85.56
64886;BME280;51514;52.206;5.114;2023-03-18T03:40:09;100868.38;;;11.85;86.08
64886;BME280;51514;52.206;5.114;2023-03-18T03:42:35;100874.94;;;11.83;86.16
64886;BME280;51514;52.206;5.114;2023-03-18T03:45:02;100875.09;;;11.81;86.08
64886;BME280;51514;52.206;5.114;2023-03-18T03:47:27;100881.50;;;11.80;86.61
64886;BME280;51514;52.206;5.114;2023-03-18T03:49:53;100875.25;;;11.80;86.75
64886;BME280;51514;52.206;5.114;2023-03-18T03:52:18;100879.00;;;11.79;86.79
64886;BME280;51514;52.206;5.114;2023-03-18T03:54:44;100881.50;;;11.80;86.75
64886;BME280;51514;52.206;5.114;2023-03-18T03:57:10;100879.50;;;11.82;87.06
64886;BME280;51514;52.206;5.114;2023-03-18T03:59:36;100880.19;;;11.84;86.90
64886;BME280;51514;52.206;5.114;2023-03-18T04:02:01;100879.16;;;11.85;87.18
64886;BME280;51514;52.206;5.114;2023-03-18T04:04:27;100878.84;;;11.88;87.00
64886;BME280;51514;52.206;5.114;2023-03-18T04:06:52;100886.75;;;11.90;86.99
64886;BME280;51514;52.206;5.114;2023-03-18T04:09:18;100875.78;;;11.91;87.04
64886;BME280;51514;52.206;5.114;2023-03-18T04:11:43;100880.72;;;11.96;86.93
64886;BME280;51514;52.206;5.114;2023-03-18T04:14:09;100884.25;;;11.96;87.38
64886;BME280;51514;52.206;5.114;2023-03-18T04:16:34;100882.41;;;11.97;87.47
64886;BME280;51514;52.206;5.114;2023-03-18T04:18:59;100884.94;;;11.98;88.00
64886;BME280;51514;52.206;5.114;2023-03-18T04:21:25;100887.47;;;12.00;88.03
64886;BME280;51514;52.206;5.114;2023-03-18T04:23:51;100881.56;;;12.04;88.30
64886;BME280;51514;52.206;5.114;2023-03-18T04:26:17;100877.69;;;12.07;88.35
64886;BME280;51514;52.206;5.114;2023-03-18T04:28:42;100882.91;;;12.09;88.43
64886;BME280;51514;52.206;5.114;2023-03-18T04:31:08;100889.34;;;12.07;88.61
64886;BME280;51514;52.206;5.114;2023-03-18T04:33:33;100890.34;;;12.06;88.64
64886;BME280;51514;52.206;5.114;2023-03-18T04:35:59;100896.44;;;12.09;88.92
64886;BME280;51514;52.206;5.114;2023-03-18T04:38:24;100887.31;;;12.10;88.96
64886;BME280;51514;52.206;5.114;2023-03-18T04:40:49;100891.88;;;12.09;89.30
64886;BME280;51514;52.206;5.114;2023-03-18T04:43:15;100890.03;;;12.10;89.29
64886;BME280;51514;52.206;5.114;2023-03-18T04:45:41;100894.41;;;12.11;89.29
64886;BME280;51514;52.206;5.114;2023-03-18T04:48:06;100890.66;;;12.12;89.33
64886;BME280;51514;52.206;5.114;2023-03-18T04:50:31;100898.63;;;12.13;89.04
64886;BME280;51514;52.206;5.114;2023-03-18T04:52:57;100907.75;;;12.12;89.20
64886;BME280;51514;52.206;5.114;2023-03-18T04:55:22;100903.19;;;12.13;89.17
64886;BME280;51514;52.206;5.114;2023-03-18T04:57:48;100906.56;;;12.15;89.08
64886;BME280;51514;52.206;5.114;2023-03-18T05:00:17;100910.78;;;12.17;89.41
64886;BME280;51514;52.206;5.114;2023-03-18T05:02:45;100914.34;;;12.18;89.15
64886;BME280;51514;52.206;5.114;2023-03-18T05:05:10;100920.44;;;12.20;88.92
64886;BME280;51514;52.206;5.114;2023-03-18T05:07:36;100926.69;;;12.20;89.18
64886;BME280;51514;52.206;5.114;2023-03-18T05:10:03;100928.53;;;12.20;89.38
64886;BME280;51514;52.206;5.114;2023-03-18T05:12:31;100931.25;;;12.20;89.37
64886;BME280;51514;52.206;5.114;2023-03-18T05:14:56;100941.22;;;12.19;89.75
64886;BME280;51514;52.206;5.114;2023-03-18T05:17:21;100946.78;;;12.18;89.96
64886;BME280;51514;52.206;5.114;2023-03-18T05:19:48;100953.19;;;12.17;90.19
64886;BME280;51514;52.206;5.114;2023-03-18T05:22:15;100952.84;;;12.12;90.24
64886;BME280;51514;52.206;5.114;2023-03-18T05:24:42;100954.88;;;12.10;90.52
64886;BME280;51514;52.206;5.114;2023-03-18T05:27:09;100958.59;;;12.09;90.92
64886;BME280;51514;52.206;5.114;2023-03-18T05:29:35;100950.31;;;12.10;91.12
64886;BME280;51514;52.206;5.114;2023-03-18T05:32:03;100954.88;;;12.10;91.33
64886;BME280;51514;52.206;5.114;2023-03-18T05:34:28;100950.81;;;12.05;92.04
64886;BME280;51514;52.206;5.114;2023-03-18T05:36:53;100951.81;;;12.04;92.51
64886;BME280;51514;52.206;5.114;2023-03-18T05:39:20;100947.41;;;11.95;93.72
64886;BME280;51514;52.206;5.114;2023-03-18T05:41:45;100944.72;;;11.95;93.85
64886;BME280;51514;52.206;5.114;2023-03-18T05:44:10;100945.03;;;11.92;93.85
64886;BME280;51514;52.206;5.114;2023-03-18T05:46:36;100960.56;;;11.90;94.58
64886;BME280;51514;52.206;5.114;2023-03-18T05:49:01;100956.50;;;11.86;94.81
64886;BME280;51514;52.206;5.114;2023-03-18T05:51:27;100962.59;;;11.88;94.86
64886;BME280;51514;52.206;5.114;2023-03-18T05:53:52;100961.06;;;11.86;94.98
64886;BME280;51514;52.206;5.114;2023-03-18T05:56:17;100956.69;;;11.85;95.43
64886;BME280;51514;52.206;5.114;2023-03-18T05:58:43;100959.22;;;11.86;95.48
64886;BME280;51514;52.206;5.114;2023-03-18T06:01:08;100956.50;;;11.86;95.33
64886;BME280;51514;52.206;5.114;2023-03-18T06:03:34;100961.75;;;11.88;95.69
64886;BME280;51514;52.206;5.114;2023-03-18T06:06:00;100968.66;;;11.90;95.14
64886;BME280;51514;52.206;5.114;2023-03-18T06:08:26;100964.97;;;11.91;95.51
64886;BME280;51514;52.206;5.114;2023-03-18T06:10:52;100967.81;;;11.90;95.19
64886;BME280;51514;52.206;5.114;2023-03-18T06:13:18;100960.91;;;11.87;95.67
64886;BME280;51514;52.206;5.114;2023-03-18T06:15:43;100966.63;;;11.84;95.71
64886;BME280;51514;52.206;5.114;2023-03-18T06:18:10;100967.47;;;11.85;96.13
64886;BME280;51514;52.206;5.114;2023-03-18T06:20:36;100964.63;;;11.86;95.84
64886;BME280;51514;52.206;5.114;2023-03-18T06:23:01;100973.22;;;11.90;96.25
64886;BME280;51514;52.206;5.114;2023-03-18T06:25:27;100981.16;;;11.91;95.78
64886;BME280;51514;52.206;5.114;2023-03-18T06:27:53;100977.47;;;11.92;95.66
64886;BME280;51514;52.206;5.114;2023-03-18T06:30:18;100982.00;;;11.92;96.16
64886;BME280;51514;52.206;5.114;2023-03-18T06:32:44;100986.09;;;11.96;95.81
64886;BME280;51514;52.206;5.114;2023-03-18T06:35:10;100987.94;;;11.95;95.69
64886;BME280;51514;52.206;5.114;2023-03-18T06:37:36;101002.66;;;12.01;95.69
64886;BME280;51514;52.206;5.114;2023-03-18T06:40:02;101002.31;;;12.04;95.44
64886;BME280;51514;52.206;5.114;2023-03-18T06:42:28;100998.13;;;12.10;95.37
64886;BME280;51514;52.206;5.114;2023-03-18T06:44:53;100995.94;;;12.13;94.90
64886;BME280;51514;52.206;5.114;2023-03-18T06:47:19;101004.72;;;12.15;94.72
64886;BME280;51514;52.206;5.114;2023-03-18T06:49:46;101010.97;;;12.16;94.86
64886;BME280;51514;52.206;5.114;2023-03-18T06:52:12;101008.59;;;12.13;94.63
64886;BME280;51514;52.206;5.114;2023-03-18T06:54:39;101005.38;;;12.09;94.92
64886;BME280;51514;52.206;5.114;2023-03-18T06:57:05;101008.25;;;12.07;94.71
64886;BME280;51514;52.206;5.114;2023-03-18T06:59:31;101007.59;;;12.14;94.58
64886;BME280;51514;52.206;5.114;2023-03-18T07:01:56;101018.13;;;12.33;93.96
64886;BME280;51514;52.206;5.114;2023-03-18T07:04:22;101019.84;;;12.42;93.30
64886;BME280;51514;52.206;5.114;2023-03-18T07:06:48;101021.84;;;12.40;92.72
64886;BME280;51514;52.206;5.114;2023-03-18T07:09:14;101022.00;;;12.30;92.72
64886;BME280;51514;52.206;5.114;2023-03-18T07:11:39;101029.25;;;12.30;93.45
64886;BME280;51514;52.206;5.114;2023-03-18T07:14:04;101021.84;;;12.48;92.96
64886;BME280;51514;52.206;5.114;2023-03-18T07:16:30;101027.31;;;12.72;92.77
64886;BME280;51514;52.206;5.114;2023-03-18T07:18:55;101037.28;;;12.96;91.56
64886;BME280;51514;52.206;5.114;2023-03-18T07:21:23;101046.94;;;13.15;91.75
64886;BME280;51514;52.206;5.114;2023-03-18T07:23:49;101046.75;;;13.33;90.92
64886;BME280;51514;52.206;5.114;2023-03-18T07:26:14;101047.56;;;13.49;90.70
64886;BME280;51514;52.206;5.114;2023-03-18T07:28:40;101041.16;;;13.50;89.26
64886;BME280;51514;52.206;5.114;2023-03-18T07:31:05;101049.81;;;13.38;89.69
64886;BME280;51514;52.206;5.114;2023-03-18T07:33:32;101044.38;;;13.22;89.62
64886;BME280;51514;52.206;5.114;2023-03-18T07:35:58;101059.94;;;13.11;90.37
64886;BME280;51514;52.206;5.114;2023-03-18T07:38:24;101048.28;;;13.03;91.06
64886;BME280;51514;52.206;5.114;2023-03-18T07:40:49;101052.31;;;12.99;91.47
64886;BME280;51514;52.206;5.114;2023-03-18T07:43:15;101052.50;;;12.97;91.90
64886;BME280;51514;52.206;5.114;2023-03-18T07:45:41;101057.09;;;12.97;91.75
64886;BME280;51514;52.206;5.114;2023-03-18T07:48:07;101060.97;;;12.94;92.27
64886;BME280;51514;52.206;5.114;2023-03-18T07:50:32;101061.28;;;12.91;92.11
64886;BME280;51514;52.206;5.114;2023-03-18T07:52:58;101071.59;;;12.88;92.58
64886;BME280;51514;52.206;5.114;2023-03-18T07:55:24;101061.63;;;12.88;93.25
64886;BME280;51514;52.206;5.114;2023-03-18T07:57:49;101060.97;;;12.94;93.26
64886;BME280;51514;52.206;5.114;2023-03-18T08:00:15;101064.34;;;13.12;93.08
64886;BME280;51514;52.206;5.114;2023-03-18T08:02:41;101063.19;;;13.39;92.25
64886;BME280;51514;52.206;5.114;2023-03-18T08:05:07;101064.78;;;13.65;90.65
64886;BME280;51514;52.206;5.114;2023-03-18T08:07:33;101065.09;;;13.78;89.26
64886;BME280;51514;52.206;5.114;2023-03-18T08:09:59;101062.00;;;13.89;88.89
64886;BME280;51514;52.206;5.114;2023-03-18T08:12:26;101054.47;;;14.07;88.22
64886;BME280;51514;52.206;5.114;2023-03-18T08:14:51;101055.59;;;14.21;87.74
64886;BME280;51514;52.206;5.114;2023-03-18T08:17:17;101064.69;;;14.36;87.10
64886;BME280;51514;52.206;5.114;2023-03-18T08:19:42;101058.50;;;14.50;85.69
64886;BME280;51514;52.206;5.114;2023-03-18T08:22:08;101055.53;;;14.68;85.11
64886;BME280;51514;52.206;5.114;2023-03-18T08:24:34;101060.81;;;14.84;84.67
64886;BME280;51514;52.206;5.114;2023-03-18T08:27:01;101053.94;;;14.96;83.53
64886;BME280;51514;52.206;5.114;2023-03-18T08:29:26;101057.50;;;15.20;82.55
64886;BME280;51514;52.206;5.114;2023-03-18T08:31:52;101058.75;;;15.47;82.04
64886;BME280;51514;52.206;5.114;2023-03-18T08:34:18;101042.84;;;15.58;80.01
64886;BME280;51514;52.206;5.114;2023-03-18T08:36:44;101044.81;;;15.79;78.87
64886;BME280;51514;52.206;5.114;2023-03-18T08:39:09;101046.81;;;15.85;77.33
64886;BME280;51514;52.206;5.114;2023-03-18T08:41:35;101056.66;;;15.86;77.29
64886;BME280;51514;52.206;5.114;2023-03-18T08:44:02;101049.41;;;15.93;77.04
64886;BME280;51514;52.206;5.114;2023-03-18T08:46:27;101042.66;;;16.04;76.57
64886;BME280;51514;52.206;5.114;2023-03-18T08:48:53;101050.69;;;16.27;75.91
64886;BME280;51514;52.206;5.114;2023-03-18T08:51:19;101037.44;;;16.38;75.42
64886;BME280;51514;52.206;5.114;2023-03-18T08:53:44;101044.63;;;16.46;74.55
64886;BME280;51514;52.206;5.114;2023-03-18T08:56:09;101051.09;;;16.45;73.96
64886;BME280;51514;52.206;5.114;2023-03-18T08:58:37;101053.31;;;16.56;74.01
64886;BME280;51514;52.206;5.114;2023-03-18T09:01:02;101052.66;;;16.69;73.47
64886;BME280;51514;52.206;5.114;2023-03-18T09:03:29;101057.78;;;16.78;72.33
64886;BME280;51514;52.206;5.114;2023-03-18T09:05:55;101043.91;;;16.95;72.72
64886;BME280;51514;52.206;5.114;2023-03-18T09:08:20;101051.94;;;17.03;71.57
64886;BME280;51514;52.206;5.114;2023-03-18T09:10:47;101056.88;;;17.14;71.86
64886;BME280;51514;52.206;5.114;2023-03-18T09:13:13;101060.56;;;17.28;71.18
64886;BME280;51514;52.206;5.114;2023-03-18T09:15:39;101066.13;;;17.41;70.43
64886;BME280;51514;52.206;5.114;2023-03-18T09:18:06;101072.84;;;17.45;70.80
64886;BME280;51514;52.206;5.114;2023-03-18T09:20:32;101070.50;;;17.42;68.79
64886;BME280;51514;52.206;5.114;2023-03-18T09:22:58;101070.13;;;17.45;69.12
64886;BME280;51514;52.206;5.114;2023-03-18T09:25:23;101071.06;;;17.59;69.81
64886;BME280;51514;52.206;5.114;2023-03-18T09:27:49;101081.28;;;17.78;69.14
64886;BME280;51514;52.206;5.114;2023-03-18T09:30:14;101070.44;;;17.84;67.97
64886;BME280;51514;52.206;5.114;2023-03-18T09:32:40;101070.34;;;17.71;67.18
64886;BME280;51514;52.206;5.114;2023-03-18T09:35:06;101074.13;;;17.70;68.68
64886;BME280;51514;52.206;5.114;2023-03-18T09:37:34;101081.50;;;17.76;67.68
64886;BME280;51514;52.206;5.114;2023-03-18T09:39:59;101082.78;;;17.80;67.50
64886;BME280;51514;52.206;5.114;2023-03-18T09:42:41;101081.50;;;17.76;66.49
64886;BME280;51514;52.206;5.114;2023-03-18T09:45:30;101089.31;;;17.86;67.06
64886;BME280;51514;52.206;5.114;2023-03-18T09:53:14;101097.66;;;17.50;67.44
64886;BME280;51514;52.206;5.114;2023-03-18T09:55:43;101087.97;;;17.47;67.69
64886;BME280;51514;52.206;5.114;2023-03-18T09:58:23;101093.56;;;17.39;67.13
64886;BME280;51514;52.206;5.114;2023-03-18T10:00:52;101104.28;;;17.41;67.97
64886;BME280;51514;52.206;5.114;2023-03-18T10:03:30;101103.38;;;17.34;68.20
64886;BME280;51514;52.206;5.114;2023-03-18T10:08:50;101105.41;;;17.25;68.35
64886;BME280;51514;52.206;5.114;2023-03-18T10:11:38;101096.53;;;17.44;66.64
64886;BME280;51514;52.206;5.114;2023-03-18T10:16:35;101095.31;;;17.47;66.36
64886;BME280;51514;52.206;5.114;2023-03-18T10:19:07;101089.84;;;17.47;66.89
64886;BME280;51514;52.206;5.114;2023-03-18T10:21:46;101090.97;;;17.80;66.64
64886;BME280;51514;52.206;5.114;2023-03-18T10:24:20;101085.50;;;18.15;64.79
64886;BME280;51514;52.206;5.114;2023-03-18T10:32:57;101083.53;;;17.68;63.68
64886;BME280;51514;52.206;5.114;2023-03-18T10:40:47;101082.91;;;17.44;66.19
64886;BME280;51514;52.206;5.114;2023-03-18T10:43:18;101079.28;;;17.37;65.10
64886;BME280;51514;52.206;5.114;2023-03-18T10:45:47;101078.63;;;17.35;65.03
64886;BME280;51514;52.206;5.114;2023-03-18T10:48:28;101083.28;;;17.41;66.09
64886;BME280;51514;52.206;5.114;2023-03-18T10:56:13;101079.22;;;17.52;65.27
64886;BME280;51514;52.206;5.114;2023-03-18T10:58:41;101084.19;;;17.48;64.53
64886;BME280;51514;52.206;5.114;2023-03-18T11:01:08;101090.03;;;17.45;65.61
64886;BME280;51514;52.206;5.114;2023-03-18T11:06:50;101091.81;;;17.32;65.92
64886;BME280;51514;52.206;5.114;2023-03-18T11:09:27;101085.97;;;17.35;66.69
64886;BME280;51514;52.206;5.114;2023-03-18T11:12:00;101075.47;;;17.32;65.90
64886;BME280;51514;52.206;5.114;2023-03-18T11:14:29;101079.88;;;17.33;65.84
64886;BME280;51514;52.206;5.114;2023-03-18T11:19:36;101084.81;;;17.23;66.56
64886;BME280;51514;52.206;5.114;2023-03-18T11:24:36;101087.88;;;17.13;67.02
64886;BME280;51514;52.206;5.114;2023-03-18T11:27:27;101089.63;;;16.99;65.77
64886;BME280;51514;52.206;5.114;2023-03-18T11:29:57;101093.81;;;16.95;67.12
64886;BME280;51514;52.206;5.114;2023-03-18T11:34:55;101091.13;;;16.81;67.27
64886;BME280;51514;52.206;5.114;2023-03-18T11:37:38;101105.72;;;16.73;67.85
64886;BME280;51514;52.206;5.114;2023-03-18T11:42:33;101102.72;;;16.68;69.14
64886;BME280;51514;52.206;5.114;2023-03-18T11:45:00;101099.72;;;16.63;69.07
64886;BME280;51514;52.206;5.114;2023-03-18T11:47:29;101103.94;;;16.51;69.06
64886;BME280;51514;52.206;5.114;2023-03-18T11:49:58;101099.91;;;16.47;69.47
64886;BME280;51514;52.206;5.114;2023-03-18T12:00:54;101088.31;;;16.23;68.34
64886;BME280;51514;52.206;5.114;2023-03-18T12:06:23;101079.66;;;16.34;68.29
64886;BME280;51514;52.206;5.114;2023-03-18T12:09:19;101077.22;;;16.39;68.57
64886;BME280;51514;52.206;5.114;2023-03-18T12:11:56;101074.38;;;16.48;68.96
64886;BME280;51514;52.206;5.114;2023-03-18T12:17:32;101072.84;;;16.60;67.26
64886;BME280;51514;52.206;5.114;2023-03-18T12:38:40;101090.09;;;16.01;66.69
64886;BME280;51514;52.206;5.114;2023-03-18T12:46:27;101096.97;;;15.83;68.86
64886;BME280;51514;52.206;5.114;2023-03-18T12:49:00;101087.59;;;15.85;69.74
64886;BME280;51514;52.206;5.114;2023-03-18T12:51:36;101087.97;;;15.82;68.92
64886;BME280;51514;52.206;5.114;2023-03-18T12:54:13;101090.78;;;15.89;68.39
64886;BME280;51514;52.206;5.114;2023-03-18T12:56:44;101084.13;;;15.91;68.44
64886;BME280;51514;52.206;5.114;2023-03-18T12:59:39;101089.38;;;15.93;68.98
64886;BME280;51514;52.206;5.114;2023-03-18T13:02:19;101092.75;;;15.95;69.56
64886;BME280;51514;52.206;5.114;2023-03-18T13:04:54;101087.22;;;16.03;69.12
64886;BME280;51514;52.206;5.114;2023-03-18T13:07:45;101082.78;;;16.17;69.08
64886;BME280;51514;52.206;5.114;2023-03-18T13:10:22;101087.63;;;16.36;66.45
64886;BME280;51514;52.206;5.114;2023-03-18T13:13:00;101083.22;;;16.50;65.71
64886;BME280;51514;52.206;5.114;2023-03-18T13:15:39;101084.13;;;16.57;65.56
64886;BME280;51514;52.206;5.114;2023-03-18T13:18:18;101079.66;;;16.64;65.16
64886;BME280;51514;52.206;5.114;2023-03-18T13:20:45;101070.75;;;16.76;66.03
64886;BME280;51514;52.206;5.114;2023-03-18T13:23:37;101077.19;;;16.90;63.39
64886;BME280;51514;52.206;5.114;2023-03-18T13:26:28;101071.59;;;16.77;63.22
64886;BME280;51514;52.206;5.114;2023-03-18T13:29:21;101076.78;;;16.72;64.30
64886;BME280;51514;52.206;5.114;2023-03-18T13:32:22;101065.06;;;16.71;63.19
64886;BME280;51514;52.206;5.114;2023-03-18T13:35:21;101069.84;;;16.69;64.12
64886;BME280;51514;52.206;5.114;2023-03-18T13:43:26;101078.00;;;16.69;65.08
64886;BME280;51514;52.206;5.114;2023-03-18T13:45:53;101083.00;;;16.66;64.63
64886;BME280;51514;52.206;5.114;2023-03-18T13:48:29;101088.00;;;16.62;63.39
64886;BME280;51514;52.206;5.114;2023-03-18T13:50:56;101078.59;;;16.65;64.30
64886;BME280;51514;52.206;5.114;2023-03-18T13:56:00;101066.47;;;16.67;63.94
64886;BME280;51514;52.206;5.114;2023-03-18T13:58:43;101073.41;;;16.70;63.98
64886;BME280;51514;52.206;5.114;2023-03-18T14:01:15;101064.59;;;16.68;63.94
64886;BME280;51514;52.206;5.114;2023-03-18T14:06:20;101066.03;;;16.49;65.01
64886;BME280;51514;52.206;5.114;2023-03-18T14:08:49;101066.41;;;16.46;65.55
64886;BME280;51514;52.206;5.114;2023-03-18T14:14:01;101063.59;;;16.54;66.52
64886;BME280;51514;52.206;5.114;2023-03-18T14:16:49;101060.03;;;16.54;65.96
64886;BME280;51514;52.206;5.114;2023-03-18T14:19:18;101058.34;;;16.53;66.47
64886;BME280;51514;52.206;5.114;2023-03-18T14:22:19;101042.81;;;16.68;66.82
64886;BME280;51514;52.206;5.114;2023-03-18T14:24:46;101045.84;;;16.79;66.28
64886;BME280;51514;52.206;5.114;2023-03-18T14:27:43;101041.63;;;16.77;66.36
64886;BME280;51514;52.206;5.114;2023-03-18T14:38:24;101034.75;;;16.60;66.78
64886;BME280;51514;52.206;5.114;2023-03-18T14:40:54;101027.97;;;16.56;66.66
64886;BME280;51514;52.206;5.114;2023-03-18T14:43:58;101024.41;;;16.55;67.44
64886;BME280;51514;52.206;5.114;2023-03-18T14:46:31;101016.38;;;16.62;67.64